Time;durP1;ratioP1;P1;durP2;ratioP2;P2;SDS_P1;SDS_P2;PMS_P1;PMS_P2;Temp;Humidity;BMP_temperature;BMP_pressure;BME280_temperature;BME280_humidity;BME280_pressure;Samples;Min_cycle;Max_cycle;Signal;HPM_P1;HPM_P2
2022/12/23 00:01:14;;;;;;;2.40;1.90;;;25.20;59.10;;;;;;4052951;29;20367;-48
2022/12/23 00:03:38;;;;;;;;;;;25.30;59.10;;;;;;4051485;29;20044;-45
2022/12/23 00:06:00;;;;;;;2.42;1.70;;;25.40;59.10;;;;;;4052421;29;19915;-47
2022/12/23 00:08:24;;;;;;;4.03;1.85;;;25.40;59.40;;;;;;4051587;29;20040;-44
2022/12/23 00:10:48;;;;;;;3.05;1.77;;;25.50;59.50;;;;;;4048291;29;20048;-47
2022/12/23 00:16:04;;;;;;;1.77;1.40;;;25.60;59.40;;;;;;4052621;29;20523;-42
2022/12/23 00:18:26;;;;;;;4.20;1.52;;;25.60;59.30;;;;;;4048849;29;20493;-44
2022/12/23 00:20:49;;;;;;;2.92;1.50;;;25.70;59.30;;;;;;4050124;29;20380;-41
2022/12/23 00:23:11;;;;;;;1.67;1.35;;;25.70;59.30;;;;;;4053010;29;20752;-46
2022/12/23 00:25:44;;;;;;;2.40;1.60;;;25.70;59.80;;;;;;4048288;29;20078;-47
2022/12/23 00:28:19;;;;;;;2.33;1.27;;;25.80;59.20;;;;;;4048808;29;20040;-46
2022/12/23 00:31:05;;;;;;;1.70;1.35;;;25.80;59.10;;;;;;4052223;29;20135;-43
2022/12/23 00:33:30;;;;;;;2.08;1.33;;;25.90;59.20;;;;;;4055540;29;20382;-45
2022/12/23 00:35:53;;;;;;;1.85;1.30;;;25.90;59.10;;;;;;4051246;29;20456;-50
2022/12/23 00:42:52;;;;;;;1.70;1.37;;;26.00;59.00;;;;;;4051836;29;20535;-49
2022/12/23 00:43:39;;;;;;;1.30;1.10;;;26.10;59.00;;;;;;4048424;29;20408;-44
2022/12/23 00:46:01;;;;;;;2.15;1.20;;;26.10;59.00;;;;;;4053166;29;20043;-45
2022/12/23 00:51:24;;;;;;;1.90;1.20;;;26.20;58.90;;;;;;4019153;29;20764;-47
2022/12/23 00:53:46;;;;;;;1.92;1.15;;;26.20;58.80;;;;;;4016592;29;20417;-45
2022/12/23 00:56:09;;;;;;;1.60;1.30;;;26.30;58.60;;;;;;4033417;29;20131;-45
2022/12/23 00:58:31;;;;;;;1.40;1.30;;;26.30;58.70;;;;;;4046994;29;20147;-48
2022/12/23 01:06:15;;;;;;;3.58;1.33;;;26.50;59.20;;;;;;4053373;29;20059;-50
2022/12/23 01:08:38;;;;;;;1.98;1.38;;;26.50;58.50;;;;;;4046319;29;20063;-51
2022/12/23 01:11:06;;;;;;;1.23;1.10;;;26.50;58.60;;;;;;4048370;29;20044;-49
2022/12/23 01:13:28;;;;;;;1.60;1.20;;;26.60;58.70;;;;;;4049798;29;20068;-47
2022/12/23 01:15:50;;;;;;;1.75;0.93;;;26.60;58.60;;;;;;4051767;29;20123;-45
2022/12/23 01:18:13;;;;;;;1.75;1.13;;;26.70;58.00;;;;;;4047286;29;20047;-44
2022/12/23 01:20:38;;;;;;;2.72;1.27;;;26.70;58.60;;;;;;4051707;29;20127;-48
2022/12/23 01:23:00;;;;;;;2.63;1.40;;;26.70;58.50;;;;;;4048918;29;20044;-50
2022/12/23 01:25:23;;;;;;;2.78;1.35;;;26.80;58.60;;;;;;4045201;29;20083;-44
2022/12/23 01:27:45;;;;;;;2.28;1.45;;;26.80;58.40;;;;;;4045743;29;20175;-45
2022/12/23 01:30:09;;;;;;;1.75;1.40;;;26.80;58.00;;;;;;4047646;29;20665;-47
2022/12/23 01:32:31;;;;;;;5.95;2.20;;;26.80;57.60;;;;;;4050106;29;20079;-53
2022/12/23 01:34:53;;;;;;;4.97;1.98;;;26.80;58.20;;;;;;4053981;29;20140;-48
2022/12/23 01:37:16;;;;;;;2.83;1.80;;;26.80;58.10;;;;;;4050212;29;20037;-54
2022/12/23 01:39:38;;;;;;;4.53;2.00;;;26.80;57.80;;;;;;4045794;29;20040;-53
2022/12/23 01:45:00;;;;;;;6.68;2.00;;;26.80;57.80;;;;;;4043724;29;20119;-54
2022/12/23 01:47:28;;;;;;;4.05;1.95;;;26.70;57.80;;;;;;4046815;29;20412;-50
2022/12/23 01:49:55;;;;;;;4.22;1.95;;;26.70;57.70;;;;;;4044974;29;20143;-52
2022/12/23 01:52:17;;;;;;;3.72;2.00;;;26.70;57.80;;;;;;4050008;29;20040;-53
2022/12/23 01:54:41;;;;;;;2.40;2.00;;;26.70;57.80;;;;;;4053980;29;20056;-51
2022/12/23 01:57:04;;;;;;;3.40;2.17;;;26.70;57.70;;;;;;4053643;29;20130;-54
2022/12/23 02:04:50;;;;;;;3.88;1.98;;;26.80;58.40;;;;;;4036960;29;20059;-50
2022/12/23 02:09:53;;;;;;;3.38;1.95;;;26.80;57.60;;;;;;4041370;29;20014;-48
2022/12/23 02:12:45;;;;;;;3.17;1.73;;;26.80;57.60;;;;;;4041077;29;20044;-50
2022/12/23 02:18:13;;;;;;;2.72;2.00;;;26.80;57.50;;;;;;4042647;29;20044;-49
2022/12/23 02:20:56;;;;;;;2.63;1.80;;;26.80;57.50;;;;;;4037300;29;20048;-48
2022/12/23 02:23:33;;;;;;;2.73;1.83;;;26.80;57.60;;;;;;4040407;29;20028;-52
2022/12/23 02:26:01;;;;;;;2.20;1.70;;;26.90;57.70;;;;;;4042818;29;20051;-52
2022/12/23 02:28:27;;;;;;;2.28;1.60;;;26.90;57.70;;;;;;4045893;29;20135;-48
2022/12/23 02:31:08;;;;;;;2.25;1.67;;;26.90;57.60;;;;;;4046034;29;20048;-50
2022/12/23 02:33:43;;;;;;;2.45;1.70;;;26.90;57.60;;;;;;4037365;29;20036;-49
2022/12/23 02:36:08;;;;;;;3.00;1.80;;;27.00;57.60;;;;;;4042437;29;20063;-48
2022/12/23 02:38:34;;;;;;;2.50;1.60;;;27.00;57.60;;;;;;4040645;29;20051;-52
2022/12/23 02:40:59;;;;;;;1.55;1.30;;;27.00;57.50;;;;;;4046248;29;20547;-52
2022/12/23 02:43:31;;;;;;;4.40;1.70;;;27.00;57.60;;;;;;4039578;29;20039;-51
2022/12/23 02:46:13;;;;;;;3.00;1.42;;;27.10;57.60;;;;;;4046551;29;20046;-53
2022/12/23 02:48:38;;;;;;;1.92;1.55;;;27.10;57.60;;;;;;4046519;29;20048;-46
2022/12/23 02:51:01;;;;;;;1.42;1.23;;;27.10;57.50;;;;;;4041635;29;20635;-50
2022/12/23 02:53:39;;;;;;;1.45;1.15;;;27.10;57.60;;;;;;4040843;29;20062;-50
2022/12/23 02:56:05;;;;;;;1.38;1.27;;;27.10;57.60;;;;;;4043193;29;20039;-47
2022/12/23 02:58:35;;;;;;;3.28;1.75;;;27.10;57.60;;;;;;4051022;29;20040;-51
2022/12/23 03:01:00;;;;;;;3.05;1.50;;;27.20;57.60;;;;;;4048783;29;20036;-48
2022/12/23 03:03:25;;;;;;;2.25;1.60;;;27.20;57.70;;;;;;4050679;29;20042;-53
2022/12/23 03:05:49;;;;;;;2.22;1.67;;;27.20;57.70;;;;;;4051068;29;20079;-47
2022/12/23 03:08:27;;;;;;;2.70;1.77;;;27.20;57.70;;;;;;4049687;29;20535;-51
2022/12/23 03:10:52;;;;;;;1.35;1.17;;;27.20;57.70;;;;;;4050248;29;20052;-53
2022/12/23 03:13:36;;;;;;;2.20;1.23;;;27.20;57.80;;;;;;4047803;29;20121;-52
2022/12/23 03:16:33;;;;;;;2.08;1.40;;;27.20;57.70;;;;;;4047862;29;20403;-53
2022/12/23 03:19:11;;;;;;;2.83;1.67;;;27.20;57.60;;;;;;4002796;29;20514;-55
2022/12/23 03:21:41;;;;;;;2.63;1.85;;;27.30;57.60;;;;;;4052383;29;20040;-50
2022/12/23 03:24:39;;;;;;;2.20;1.50;;;27.30;57.60;;;;;;4036797;29;20033;-52
2022/12/23 03:27:11;;;;;;;2.20;1.58;;;27.30;57.60;;;;;;4047660;29;20044;-51
2022/12/23 03:29:55;;;;;;;2.15;1.38;;;27.30;57.60;;;;;;4052510;29;20063;-51
2022/12/23 03:32:21;;;;;;;1.75;1.50;;;27.30;57.60;;;;;;4027907;29;20040;-52
2022/12/23 03:34:47;;;;;;;1.23;1.10;;;27.30;57.50;;;;;;4050382;29;20044;-53
2022/12/23 03:37:13;;;;;;;2.55;1.50;;;27.30;57.50;;;;;;4051791;29;20042;-48
2022/12/23 03:40:17;;;;;;;1.77;1.30;;;27.30;57.50;;;;;;4070575;23;20743;-52
2022/12/23 03:42:44;;;;;;;2.00;1.58;;;27.40;57.50;;;;;;3990682;29;20046;-51
2022/12/23 03:45:16;;;;;;;2.60;1.80;;;27.40;57.80;;;;;;3989195;29;20442;-51
2022/12/23 03:47:48;;;;;;;1.83;1.25;;;27.40;57.40;;;;;;4040969;29;20251;-50
2022/12/23 03:50:13;;;;;;;2.63;1.40;;;27.40;57.40;;;;;;4069903;29;20059;-53
2022/12/23 03:52:51;;;;;;;2.42;1.63;;;27.40;57.40;;;;;;4068011;29;20047;-47
2022/12/23 03:55:20;;;;;;;1.52;1.25;;;27.40;57.40;;;;;;4072177;29;20102;-46
2022/12/23 03:58:07;;;;;;;1.58;1.10;;;27.40;57.30;;;;;;4069863;29;20040;-50
2022/12/23 04:00:35;;;;;;;1.50;1.40;;;27.50;57.40;;;;;;4073407;29;20374;-46
2022/12/23 04:03:05;;;;;;;2.40;1.40;;;27.50;57.30;;;;;;4045239;29;20114;-49
2022/12/23 04:05:38;;;;;;;1.77;1.48;;;27.50;57.30;;;;;;4061403;29;20066;-49
2022/12/23 04:08:01;;;;;;;1.80;1.50;;;27.60;57.20;;;;;;4074044;29;20039;-50
2022/12/23 04:10:24;;;;;;;1.80;1.50;;;27.60;57.20;;;;;;4095966;23;20138;-49
2022/12/23 04:12:47;;;;;;;1.92;1.30;;;27.60;57.10;;;;;;4072624;29;20036;-53
2022/12/23 04:15:10;;;;;;;1.63;1.33;;;27.60;57.10;;;;;;4060628;29;20603;-50
2022/12/23 04:17:32;;;;;;;2.30;1.50;;;27.70;57.20;;;;;;4074604;29;20131;-51
2022/12/23 04:19:55;;;;;;;1.58;1.30;;;27.70;57.10;;;;;;4073793;29;20385;-50
2022/12/23 04:22:17;;;;;;;1.70;1.43;;;27.70;57.10;;;;;;4073892;29;20063;-49
2022/12/23 04:24:40;;;;;;;1.88;1.40;;;27.80;57.00;;;;;;4071255;29;20048;-48
2022/12/23 04:27:03;;;;;;;1.70;1.50;;;27.80;57.00;;;;;;4072933;29;20035;-47
2022/12/23 04:29:25;;;;;;;2.20;1.67;;;27.90;56.90;;;;;;4070197;29;20134;-50
2022/12/23 04:31:47;;;;;;;2.15;1.55;;;27.90;56.80;;;;;;4069981;29;20031;-53
2022/12/23 04:34:10;;;;;;;2.50;1.70;;;27.90;56.70;;;;;;4074790;29;20123;-52
2022/12/23 04:36:32;;;;;;;2.10;1.42;;;28.00;56.60;;;;;;4072850;29;20050;-53
2022/12/23 04:38:55;;;;;;;1.38;1.27;;;28.10;56.60;;;;;;4074981;29;20502;-49
2022/12/23 04:41:17;;;;;;;1.80;1.30;;;28.10;56.60;;;;;;4076282;29;20063;-53
2022/12/23 04:43:39;;;;;;;2.60;1.85;;;28.20;56.50;;;;;;4070245;29;20040;-48
2022/12/23 04:46:02;;;;;;;1.67;1.48;;;28.20;56.30;;;;;;4069968;29;20176;-51
2022/12/23 04:48:24;;;;;;;5.07;1.70;;;28.30;56.50;;;;;;4073983;29;20115;-52
2022/12/23 04:50:47;;;;;;;6.63;1.58;;;28.30;57.20;;;;;;4071355;29;20692;-54
2022/12/23 04:53:09;;;;;;;3.22;1.50;;;28.30;57.70;;;;;;4067155;29;20040;-46
2022/12/23 04:55:32;;;;;;;3.65;1.40;;;28.30;58.10;;;;;;4070343;29;20040;-45
2022/12/23 04:57:54;;;;;;;2.53;1.45;;;28.30;58.50;;;;;;4057424;29;20051;-50
2022/12/23 05:00:17;;;;;;;2.00;1.40;;;28.30;58.70;;;;;;4070931;29;20043;-52
2022/12/23 05:02:39;;;;;;;9.57;1.40;;;28.30;58.80;;;;;;4069451;29;20044;-54
2022/12/23 05:05:02;;;;;;;1.70;1.30;;;28.30;58.80;;;;;;4063187;29;20047;-52
2022/12/23 05:07:25;;;;;;;4.85;1.45;;;28.40;58.80;;;;;;4053037;29;20037;-52
2022/12/23 05:09:47;;;;;;;2.88;1.17;;;28.40;58.90;;;;;;4043954;29;20048;-54
2022/12/23 05:12:10;;;;;;;2.67;1.23;;;28.30;58.80;;;;;;4046250;29;20044;-52
2022/12/23 05:14:32;;;;;;;2.03;1.40;;;28.30;58.80;;;;;;4047459;29;20047;-48
2022/12/23 05:16:55;;;;;;;2.50;1.45;;;28.40;58.90;;;;;;4060239;29;20126;-52
2022/12/23 05:19:17;;;;;;;3.63;1.00;;;28.40;59.10;;;;;;4051867;29;20460;-49
2022/12/23 05:21:39;;;;;;;3.25;1.27;;;28.50;59.10;;;;;;4049500;29;20028;-50
2022/12/23 05:24:05;;;;;;;3.42;1.35;;;28.40;59.00;;;;;;4051331;29;20216;-51
2022/12/23 05:26:28;;;;;;;7.82;1.75;;;28.50;59.10;;;;;;4045461;29;20055;-51
2022/12/23 05:28:51;;;;;;;4.13;1.38;;;28.50;59.30;;;;;;4048487;29;20392;-52
2022/12/23 05:31:17;;;;;;;4.65;1.50;;;28.60;59.30;;;;;;4052040;29;20036;-52
2022/12/23 05:33:43;;;;;;;3.92;1.55;;;28.70;59.30;;;;;;4045236;29;20606;-56
2022/12/23 05:36:11;;;;;;;3.95;1.08;;;28.70;59.20;;;;;;4044731;29;20044;-55
2022/12/23 05:38:37;;;;;;;4.07;1.20;;;28.80;59.20;;;;;;4041231;29;20092;-53
2022/12/23 05:41:00;;;;;;;10.45;1.38;;;28.80;59.30;;;;;;4046759;29;20071;-48
2022/12/23 05:43:23;;;;;;;2.42;1.08;;;28.80;59.40;;;;;;4036197;29;20044;-53
2022/12/23 05:45:46;;;;;;;3.50;1.33;;;28.80;59.40;;;;;;4036821;29;20044;-45
2022/12/23 05:48:10;;;;;;;3.17;0.90;;;28.80;59.50;;;;;;4047575;29;20051;-50
2022/12/23 05:50:33;;;;;;;2.60;1.15;;;28.80;59.30;;;;;;4050720;29;20496;-50
2022/12/23 05:52:56;;;;;;;3.70;1.08;;;28.90;59.20;;;;;;4051830;29;20055;-53
2022/12/23 05:55:19;;;;;;;3.78;1.00;;;29.00;59.20;;;;;;4048381;29;20727;-54
2022/12/23 05:57:41;;;;;;;2.80;0.90;;;29.00;59.70;;;;;;4047837;29;20606;-51
2022/12/23 06:00:05;;;;;;;3.40;1.10;;;29.10;58.90;;;;;;4047888;29;20481;-50
2022/12/23 06:02:27;;;;;;;1.33;0.80;;;29.20;58.80;;;;;;4047887;29;20048;-47
2022/12/23 06:04:50;;;;;;;2.47;0.80;;;29.30;58.70;;;;;;4050559;29;20048;-49
2022/12/23 06:07:13;;;;;;;2.35;1.10;;;29.40;58.70;;;;;;4046756;29;20503;-53
2022/12/23 06:09:35;;;;;;;3.08;1.40;;;29.50;58.80;;;;;;4052569;29;20052;-56
2022/12/23 06:11:58;;;;;;;3.20;1.70;;;29.60;58.40;;;;;;4052350;29;20492;-54
2022/12/23 06:14:21;;;;;;;1.90;1.23;;;29.60;57.80;;;;;;4026809;29;20064;-49
2022/12/23 06:16:51;;;;;;;3.67;1.20;;;29.60;57.90;;;;;;4048466;29;20659;-45
2022/12/23 06:19:14;;;;;;;1.83;1.23;;;29.70;58.00;;;;;;4048598;29;20032;-43
2022/12/23 06:21:37;;;;;;;3.70;1.30;;;29.80;58.00;;;;;;4049304;29;20424;-48
2022/12/23 06:23:59;;;;;;;1.88;1.10;;;29.80;58.00;;;;;;4051702;29;20096;-50
2022/12/23 06:26:22;;;;;;;4.25;1.65;;;29.70;58.10;;;;;;4050619;29;20376;-44
2022/12/23 06:28:45;;;;;;;3.43;1.60;;;29.70;57.00;;;;;;4050234;29;20044;-51
2022/12/23 06:31:08;;;;;;;2.15;1.60;;;29.70;56.40;;;;;;4036579;29;20047;-48
2022/12/23 06:33:31;;;;;;;3.03;2.00;;;29.60;55.80;;;;;;4046799;29;20072;-52
2022/12/23 06:36:13;;;;;;;3.30;1.85;;;29.60;55.60;;;;;;4048885;29;20484;-55
2022/12/23 06:38:36;;;;;;;3.13;1.50;;;29.60;55.40;;;;;;4035468;29;20032;-49
2022/12/23 06:40:58;;;;;;;3.38;1.70;;;29.60;55.30;;;;;;4060122;29;20048;-49
2022/12/23 06:43:21;;;;;;;2.00;1.52;;;29.60;55.30;;;;;;4057163;29;20107;-46
2022/12/23 06:45:48;;;;;;;2.97;1.80;;;29.60;55.20;;;;;;4057111;29;20036;-53
2022/12/23 06:48:10;;;;;;;2.33;1.52;;;29.60;55.10;;;;;;4048401;29;20537;-46
2022/12/23 06:50:33;;;;;;;1.73;1.40;;;29.60;55.10;;;;;;4057909;29;20507;-52
2022/12/23 06:52:55;;;;;;;2.50;1.23;;;29.60;55.00;;;;;;4054202;29;20074;-51
2022/12/23 06:55:18;;;;;;;4.22;1.60;;;29.60;55.00;;;;;;4062068;29;20090;-53
2022/12/23 06:57:40;;;;;;;3.33;1.83;;;29.60;55.00;;;;;;4055514;29;20331;-51
2022/12/23 07:00:04;;;;;;;2.28;1.33;;;29.50;54.90;;;;;;4056108;29;20087;-50
2022/12/23 07:02:26;;;;;;;1.98;1.20;;;29.50;54.90;;;;;;4055691;29;20123;-44
2022/12/23 07:04:49;;;;;;;1.92;1.20;;;29.50;54.90;;;;;;4054932;29;20477;-50
2022/12/23 07:07:11;;;;;;;2.78;1.33;;;29.50;55.00;;;;;;4058531;29;20627;-49
2022/12/23 07:09:34;;;;;;;1.75;1.27;;;29.50;55.00;;;;;;4059642;29;20568;-51
2022/12/23 07:11:56;;;;;;;2.15;1.38;;;29.50;55.00;;;;;;4054811;29;20041;-51
2022/12/23 07:14:19;;;;;;;2.22;1.38;;;29.40;54.80;;;;;;4059253;29;20126;-50
2022/12/23 07:16:41;;;;;;;1.95;1.42;;;29.40;54.80;;;;;;4046244;29;20547;-54
2022/12/23 07:19:04;;;;;;;1.73;1.20;;;29.50;54.90;;;;;;4063273;29;20051;-48
2022/12/23 07:21:26;;;;;;;1.73;1.10;;;29.50;54.90;;;;;;4060637;29;20098;-48
2022/12/23 07:23:48;;;;;;;1.30;1.13;;;29.40;54.70;;;;;;4050176;29;20120;-50
2022/12/23 07:26:11;;;;;;;1.40;1.20;;;29.40;54.80;;;;;;4067532;29;20533;-50
2022/12/23 07:28:34;;;;;;;1.70;1.48;;;29.40;54.70;;;;;;4064323;29;20040;-46
2022/12/23 07:30:56;;;;;;;2.05;1.30;;;29.40;55.30;;;;;;4064883;29;20079;-48
2022/12/23 07:33:18;;;;;;;2.35;1.35;;;29.40;54.70;;;;;;4067609;29;20497;-47
2022/12/23 07:35:41;;;;;;;1.83;1.30;;;29.40;54.80;;;;;;4066463;29;20044;-47
2022/12/23 07:38:04;;;;;;;1.73;1.30;;;29.40;54.90;;;;;;4062714;29;20039;-51
2022/12/23 07:40:26;;;;;;;1.58;1.10;;;29.30;54.80;;;;;;4061611;29;20048;-47
2022/12/23 07:42:53;;;;;;;1.60;1.10;;;29.40;54.90;;;;;;4069410;29;20044;-49
2022/12/23 07:45:16;;;;;;;2.00;1.33;;;29.30;54.90;;;;;;4066496;29;20043;-45
2022/12/23 07:47:38;;;;;;;2.08;1.27;;;29.30;55.00;;;;;;4066369;29;20099;-46
2022/12/23 07:50:00;;;;;;;1.60;1.08;;;29.30;55.00;;;;;;4063576;29;20088;-51
2022/12/23 07:52:23;;;;;;;1.88;1.20;;;29.20;54.90;;;;;;4067771;29;20054;-44
2022/12/23 07:54:45;;;;;;;2.30;0.98;;;29.20;54.90;;;;;;4064016;29;20058;-49
2022/12/23 07:57:08;;;;;;;1.80;1.30;;;29.20;54.90;;;;;;4071488;29;20547;-51
2022/12/23 07:59:30;;;;;;;1.15;1.00;;;29.20;54.90;;;;;;4067810;29;20040;-47
2022/12/23 08:01:53;;;;;;;1.95;1.27;;;29.10;54.90;;;;;;4057689;29;20044;-48
2022/12/23 08:04:15;;;;;;;1.90;1.38;;;29.10;54.90;;;;;;4061501;29;20035;-51
2022/12/23 08:06:37;;;;;;;2.67;1.30;;;29.10;54.80;;;;;;4059814;29;20397;-48
2022/12/23 08:09:00;;;;;;;2.08;1.33;;;29.10;54.80;;;;;;4056496;29;20049;-44
2022/12/23 08:11:22;;;;;;;1.95;1.15;;;29.10;54.70;;;;;;4054893;29;20048;-49
2022/12/23 08:13:47;;;;;;;1.55;1.15;;;29.10;54.70;;;;;;4058717;29;20036;-45
2022/12/23 08:16:10;;;;;;;2.00;1.20;;;29.00;54.60;;;;;;4053591;29;20087;-46
2022/12/23 08:18:35;;;;;;;1.17;1.08;;;29.00;54.60;;;;;;4052659;29;20047;-47
2022/12/23 08:21:00;;;;;;;2.80;1.25;;;29.00;54.50;;;;;;4052865;29;20120;-48
2022/12/23 08:23:23;;;;;;;1.45;1.13;;;28.90;54.50;;;;;;4055473;29;20060;-44
2022/12/23 08:25:46;;;;;;;3.67;1.50;;;28.90;54.50;;;;;;4058738;29;20040;-50
2022/12/23 08:28:08;;;;;;;1.55;1.13;;;28.90;54.40;;;;;;4054552;29;20511;-47
2022/12/23 08:30:30;;;;;;;2.22;1.40;;;28.90;54.40;;;;;;4057926;29;20428;-46
2022/12/23 08:32:53;;;;;;;2.03;1.20;;;28.90;54.50;;;;;;4055565;29;20231;-45
2022/12/23 08:35:15;;;;;;;3.50;1.60;;;28.90;54.50;;;;;;4057902;29;20402;-46
2022/12/23 08:37:38;;;;;;;2.08;1.33;;;28.80;54.40;;;;;;4060542;29;20126;-50
2022/12/23 08:40:00;;;;;;;2.10;1.33;;;28.80;54.40;;;;;;4046341;29;20504;-49
2022/12/23 08:42:23;;;;;;;2.58;1.50;;;28.80;54.30;;;;;;4055246;29;20143;-47
2022/12/23 08:44:45;;;;;;;2.83;1.50;;;28.80;54.40;;;;;;4055791;29;20120;-47
2022/12/23 08:47:07;;;;;;;2.85;1.60;;;28.80;54.30;;;;;;4040097;29;20547;-48
2022/12/23 08:49:30;;;;;;;2.67;1.23;;;28.70;54.20;;;;;;4054795;29;20099;-48
2022/12/23 08:51:52;;;;;;;3.58;1.60;;;28.70;54.20;;;;;;4054044;29;20107;-49
2022/12/23 08:54:16;;;;;;;5.20;1.58;;;28.70;54.80;;;;;;4051783;29;20043;-49
2022/12/23 08:56:41;;;;;;;;;;;28.70;54.20;;;;;;4059030;29;20040;-50
2022/12/23 08:59:04;;;;;;;3.08;1.83;;;28.60;54.20;;;;;;4059966;29;19937;-51
2022/12/23 09:01:30;;;;;;;5.03;1.63;;;28.60;54.00;;;;;;4052465;29;20424;-44
2022/12/23 09:03:52;;;;;;;2.28;1.30;;;28.60;54.00;;;;;;4057008;29;20291;-43
2022/12/23 09:06:23;;;;;;;3.07;1.20;;;28.60;54.00;;;;;;4060936;29;20122;-43
2022/12/23 09:08:46;;;;;;;2.55;1.50;;;28.60;54.10;;;;;;4055408;29;20040;-46
2022/12/23 09:11:15;;;;;;;4.13;1.70;;;28.50;53.90;;;;;;4058383;29;20528;-44
2022/12/23 09:13:37;;;;;;;4.80;1.60;;;28.50;54.00;;;;;;4054663;29;20452;-44
2022/12/23 09:16:00;;;;;;;2.40;1.47;;;28.50;54.30;;;;;;4055538;29;20077;-49
2022/12/23 09:18:22;;;;;;;2.47;1.30;;;28.50;54.10;;;;;;4043586;29;20188;-45
2022/12/23 09:20:45;;;;;;;2.15;1.50;;;28.50;54.00;;;;;;4058162;29;20048;-48
2022/12/23 09:23:07;;;;;;;3.37;1.73;;;28.50;54.00;;;;;;4038679;29;20079;-48
2022/12/23 09:25:30;;;;;;;2.33;1.35;;;28.40;54.00;;;;;;4054266;29;20043;-51
2022/12/23 09:27:53;;;;;;;6.90;1.80;;;28.40;53.80;;;;;;4060199;29;20040;-49
2022/12/23 09:30:15;;;;;;;2.97;1.40;;;28.40;53.80;;;;;;4045511;29;20105;-46
2022/12/23 09:32:38;;;;;;;3.38;1.73;;;28.40;53.90;;;;;;4058601;29;20048;-51
2022/12/23 09:35:00;;;;;;;4.30;1.65;;;28.40;53.80;;;;;;4052760;29;20437;-53
2022/12/23 09:37:23;;;;;;;2.40;1.40;;;28.40;53.90;;;;;;4055535;29;20504;-53
2022/12/23 09:39:45;;;;;;;4.00;1.95;;;28.40;53.90;;;;;;4056932;29;20036;-46
2022/12/23 09:42:36;;;;;;;1.88;1.38;;;28.30;53.90;;;;;;4057175;29;20044;-45
2022/12/23 09:45:35;;;;;;;3.63;1.90;;;28.30;53.90;;;;;;4049689;29;20127;-45
2022/12/23 09:47:57;;;;;;;1.42;1.27;;;28.30;53.90;;;;;;4057598;29;20552;-49
2022/12/23 09:50:28;;;;;;;2.92;1.48;;;28.30;54.00;;;;;;4053178;29;20047;-47
2022/12/23 09:53:17;;;;;;;2.80;1.73;;;28.30;54.00;;;;;;4058600;29;20944;-47
2022/12/23 09:56:00;;;;;;;2.35;1.35;;;28.30;54.00;;;;;;4063473;29;20038;-52
2022/12/23 09:58:45;;;;;;;2.15;1.60;;;28.20;53.90;;;;;;4043030;29;20057;-51
2022/12/23 10:01:06;;;;;;;;;;;28.20;54.00;;;;;;4063541;29;20412;-53
2022/12/23 10:03:38;;;;;;;2.92;1.60;;;28.20;54.10;;;;;;4056614;29;19994;-50
2022/12/23 10:06:21;;;;;;;3.95;1.50;;;28.20;54.10;;;;;;4058377;29;20478;-49
2022/12/23 10:08:48;;;;;;;2.28;1.30;;;28.20;54.10;;;;;;4057801;29;20036;-51
2022/12/23 10:11:33;;;;;;;3.25;1.83;;;28.20;54.20;;;;;;4043075;29;20056;-47
2022/12/23 10:13:58;;;;;;;2.95;1.63;;;28.10;54.20;;;;;;4057314;29;20459;-52
2022/12/23 10:16:25;;;;;;;3.08;1.63;;;28.20;54.30;;;;;;4058381;29;20032;-51
2022/12/23 10:19:11;;;;;;;3.88;1.75;;;28.10;54.30;;;;;;4062064;29;20049;-53
2022/12/23 10:21:39;;;;;;;2.08;1.38;;;28.10;54.40;;;;;;4065909;29;20051;-48
2022/12/23 10:24:10;;;;;;;2.55;1.58;;;28.10;54.40;;;;;;4041010;29;20340;-50
2022/12/23 10:26:57;;;;;;;4.30;1.73;;;28.10;54.50;;;;;;4056778;29;20099;-49
2022/12/23 10:29:25;;;;;;;2.13;1.48;;;28.10;54.60;;;;;;4057967;29;20469;-50
2022/12/23 10:32:25;;;;;;;2.97;1.60;;;28.10;54.70;;;;;;4059326;29;20055;-48
2022/12/23 10:35:29;;;;;;;1.85;1.50;;;28.10;54.80;;;;;;4057619;29;20044;-48
2022/12/23 10:37:57;;;;;;;2.03;1.50;;;28.00;54.80;;;;;;4054673;29;20036;-50
2022/12/23 10:40:32;;;;;;;2.78;1.80;;;28.00;54.90;;;;;;4054185;29;20043;-48
2022/12/23 10:43:03;;;;;;;1.80;1.52;;;28.00;54.90;;;;;;4059777;29;20044;-50
2022/12/23 10:45:43;;;;;;;2.35;1.77;;;28.00;55.60;;;;;;4058339;29;20060;-51
2022/12/23 10:48:23;;;;;;;2.45;1.45;;;28.00;55.00;;;;;;4055801;29;20064;-48
2022/12/23 10:51:14;;;;;;;1.90;1.23;;;28.00;55.20;;;;;;4062821;29;20059;-48
2022/12/23 10:53:46;;;;;;;1.95;1.30;;;28.00;55.30;;;;;;4060897;29;20047;-49
2022/12/23 10:56:08;;;;;;;2.35;1.40;;;27.90;55.20;;;;;;4061602;29;20613;-51
2022/12/23 10:58:31;;;;;;;3.10;1.75;;;27.90;55.30;;;;;;4060951;29;20276;-49
2022/12/23 11:00:57;;;;;;;2.90;1.65;;;27.90;55.40;;;;;;4049549;29;20039;-49
2022/12/23 11:03:32;;;;;;;1.60;1.33;;;27.90;56.00;;;;;;4058477;29;20040;-51
2022/12/23 11:05:57;;;;;;;2.10;1.55;;;27.90;55.50;;;;;;4057733;29;20091;-50
2022/12/23 11:08:22;;;;;;;1.90;1.50;;;27.90;55.60;;;;;;4058353;29;20039;-51
2022/12/23 11:10:45;;;;;;;2.50;1.70;;;27.90;55.60;;;;;;4042942;29;20053;-50
2022/12/23 11:13:07;;;;;;;3.05;1.90;;;27.90;55.70;;;;;;4061752;29;20423;-53
2022/12/23 11:15:39;;;;;;;2.45;1.52;;;27.90;55.80;;;;;;4064983;29;20519;-50
2022/12/23 11:18:11;;;;;;;2.40;1.42;;;27.80;55.80;;;;;;4058115;29;20170;-51
2022/12/23 11:20:36;;;;;;;3.10;1.50;;;27.80;55.80;;;;;;4063952;29;20126;-47
2022/12/23 11:23:01;;;;;;;2.85;1.25;;;27.80;55.90;;;;;;4051788;29;20064;-50
2022/12/23 11:25:36;;;;;;;2.22;1.60;;;27.80;56.00;;;;;;4062699;29;20527;-49
2022/12/23 11:28:17;;;;;;;3.58;1.58;;;27.80;56.00;;;;;;4056951;29;20038;-47
2022/12/23 11:30:53;;;;;;;2.60;1.55;;;27.80;56.10;;;;;;4059241;29;20398;-50
2022/12/23 11:33:31;;;;;;;1.90;1.17;;;27.80;56.10;;;;;;4060651;29;20043;-47
2022/12/23 11:36:23;;;;;;;2.20;1.60;;;27.80;56.20;;;;;;4061542;29;20040;-47
2022/12/23 11:39:02;;;;;;;1.95;1.40;;;27.80;56.30;;;;;;4062595;29;20123;-48
2022/12/23 11:41:27;;;;;;;2.17;1.60;;;27.80;56.40;;;;;;4062784;29;20056;-47
2022/12/23 11:44:00;;;;;;;2.30;1.42;;;27.80;56.50;;;;;;4062590;29;20119;-48
2022/12/23 11:46:29;;;;;;;2.30;1.48;;;27.70;56.40;;;;;;4062782;29;20052;-47
2022/12/23 11:49:16;;;;;;;1.77;1.38;;;27.70;56.50;;;;;;4058924;29;20408;-48
2022/12/23 11:51:39;;;;;;;2.45;1.50;;;27.70;56.50;;;;;;4055285;29;20553;-47
2022/12/23 11:54:02;;;;;;;2.83;1.60;;;27.70;56.60;;;;;;4057810;29;20051;-48
2022/12/23 11:56:26;;;;;;;3.83;1.52;;;27.70;56.70;;;;;;4057617;29;20040;-43
2022/12/23 11:58:53;;;;;;;3.55;1.52;;;27.70;56.90;;;;;;4057127;29;20524;-51
2022/12/23 12:01:22;;;;;;;3.30;1.42;;;27.70;57.00;;;;;;4060156;29;20034;-49
2022/12/23 12:03:49;;;;;;;3.80;1.38;;;27.70;57.10;;;;;;4056906;29;20071;-44
2022/12/23 12:06:15;;;;;;;3.88;1.33;;;27.70;57.80;;;;;;4059662;28;20028;-50
2022/12/23 12:08:39;;;;;;;3.75;1.38;;;27.70;57.20;;;;;;4061986;29;20177;-46
2022/12/23 12:11:16;;;;;;;4.28;0.90;;;27.70;57.40;;;;;;4053750;29;20443;-47
2022/12/23 12:14:03;;;;;;;2.53;1.20;;;27.70;57.30;;;;;;4049414;29;20084;-45
2022/12/23 12:16:58;;;;;;;2.75;0.88;;;27.70;57.40;;;;;;4059948;29;20036;-47
2022/12/23 12:19:24;;;;;;;2.80;1.10;;;27.80;58.10;;;;;;4058836;29;20047;-44
2022/12/23 12:21:49;;;;;;;3.17;1.00;;;27.80;57.70;;;;;;4052903;29;20044;-44
2022/12/23 12:24:18;;;;;;;2.45;1.05;;;27.80;57.70;;;;;;4058933;29;20036;-44
2022/12/23 12:26:43;;;;;;;4.80;1.10;;;27.80;57.70;;;;;;4060346;29;20416;-43
2022/12/23 12:29:44;;;;;;;5.85;0.85;;;27.80;57.80;;;;;;4062118;29;20063;-48
2022/12/23 12:32:27;;;;;;;2.58;0.98;;;27.80;57.80;;;;;;4044866;29;20045;-47
2022/12/23 12:35:16;;;;;;;2.55;1.00;;;27.80;57.90;;;;;;4055841;29;20507;-45
2022/12/23 12:37:54;;;;;;;11.05;1.90;;;27.80;57.90;;;;;;4060034;29;20415;-43
2022/12/23 12:40:41;;;;;;;5.95;1.35;;;27.80;58.00;;;;;;4058319;29;20468;-43
2022/12/23 12:43:37;;;;;;;19.42;2.63;;;27.80;58.00;;;;;;4048662;29;20035;-49
2022/12/23 12:46:17;;;;;;;24.98;3.17;;;27.80;58.30;;;;;;4059264;29;20035;-45
2022/12/23 12:49:14;;;;;;;20.60;2.92;;;27.80;58.40;;;;;;4059549;29;20420;-50
2022/12/23 12:51:46;;;;;;;13.45;2.67;;;27.80;58.40;;;;;;4044529;29;20047;-54
2022/12/23 12:54:26;;;;;;;11.55;1.70;;;27.80;58.50;;;;;;4065329;29;20042;-51
2022/12/23 12:56:51;;;;;;;12.95;2.15;;;27.80;58.50;;;;;;4068004;29;20123;-54
2022/12/23 12:59:18;;;;;;;8.60;1.35;;;27.80;58.40;;;;;;4066339;29;20035;-53
2022/12/23 13:01:53;;;;;;;5.40;1.30;;;27.80;58.50;;;;;;4066936;29;20393;-51
2022/12/23 13:04:48;;;;;;;5.60;1.45;;;27.80;58.50;;;;;;4066232;29;20039;-50
2022/12/23 13:07:29;;;;;;;10.65;1.27;;;27.80;58.60;;;;;;4065791;29;20158;-55
2022/12/23 13:10:12;;;;;;;4.57;1.13;;;27.80;58.50;;;;;;4058159;29;20060;-53
2022/12/23 13:12:45;;;;;;;2.85;0.90;;;27.80;58.60;;;;;;4055663;29;20253;-52
2022/12/23 13:15:22;;;;;;;3.88;0.80;;;27.80;58.60;;;;;;4062388;29;20088;-54
2022/12/23 13:17:52;;;;;;;2.38;0.90;;;27.80;58.60;;;;;;4070072;29;20047;-54
2022/12/23 13:20:34;;;;;;;5.28;1.10;;;27.80;58.60;;;;;;4065130;29;20512;-54